Aérodrome :
LOGIN :

S'inscrire | Disclaimer

   EN    FR    IT 

 










Légende :    VFR   VFR Marginal   IFR   IFR Intensif   IFR Très Intensif
Visi : 
Plafond : 
>= 8 km
>= 3000ft
5 à 8 km
1000 à 3000 ft
1500m à 5 km
500 à 1000 ft
800 à 1500m
200 à 500 ft
< 800m
< 200 ft
Symboles :   Orages  Brouillard  Fortes neiges  Fortes précipitations  Vent > 20 kt
SIGMETs :   Divers  Orages  Givrage  Turbulence  Onde Orograph.  Cendres Volcan.







- Altitude de l'aérodrome : 297 ft
- Code IATA : ODB


LEBA - Córdoba

DERNIER METAR :
  • 261630Z 23004KT 140V280 9999 FEW040 28/12 Q1013

METARs EXPIRÉS :
  • 261600Z 24005KT 190V290 9999 FEW040 28/14 Q1013
  • 261530Z 21005KT 140V300 9999 FEW035 28/13 Q1014
  • 261500Z 06003KT 9999 FEW035 29/11 Q1014
  • 261430Z 12002KT 9999 FEW030 28/11 Q1014
  • 261400Z 07002KT 9999 FEW030 28/11 Q1014

TAF TAF LEBA
Valide du 26 à 15h jusqu'au 27 à 00h UTC


261400Z 2615/2624 09005KT CAVOK
BECMG 2615/2617 22010KT
Pas de NOTAMs connus pour ce terrain.
1 SIGMET publié pour la FIR Madrid (LECM) :
 
Orages noyés dans la masse
LECM SIGMET 1 VALID 261619/262000 LEVA
LECM MADRID FIR/UIR EMBD TS OBS AT 1619Z WI N3720 W00550 - N3730 W00350 - N3640 W00410 - N3610 W00610 - N3720 W00550 TOP FL360 STNR NC=



MET'MAP, la Météo Aéronautique d'un coup d'oeil ! - Copyright ORBIFLY Décembre 2007 - Disclaimer

ORBIFLY MET'MAP TEAM :

Programmation & Développement : Alexandra Zaïnal
Conception & Développement : Baudouin d'Aumeries
Co-Programmation & Développement : Marc-Olivier Méhu
Soutien technique & logistique : Manuel Goepfert

Contact : metmap@orbifly.com




SOURCES & CREDITS :

   NOAA